sensor_id;sensor_type;location;lat;lon;timestamp;temperature;humidity
67275;DHT22;55463;52.324;5.122;2023-05-24T00:01:32;10.34;84.50
67275;DHT22;55463;52.324;5.122;2023-05-24T00:03:58;10.31;84.37
67275;DHT22;55463;52.324;5.122;2023-05-24T00:06:25;10.31;83.68
67275;DHT22;55463;52.324;5.122;2023-05-24T00:08:52;10.28;84.42
67275;DHT22;55463;52.324;5.122;2023-05-24T00:11:18;10.28;84.24
67275;DHT22;55463;52.324;5.122;2023-05-24T00:13:44;10.28;83.68
67275;DHT22;55463;52.324;5.122;2023-05-24T00:16:09;10.24;84.87
67275;DHT22;55463;52.324;5.122;2023-05-24T00:18:35;10.24;84.20
67275;DHT22;55463;52.324;5.122;2023-05-24T00:21:05;10.25;84.16
67275;DHT22;55463;52.324;5.122;2023-05-24T00:23:31;10.25;84.97
67275;DHT22;55463;52.324;5.122;2023-05-24T00:25:57;10.24;85.42
67275;DHT22;55463;52.324;5.122;2023-05-24T00:28:22;10.24;85.68
67275;DHT22;55463;52.324;5.122;2023-05-24T00:30:48;10.27;86.07
67275;DHT22;55463;52.324;5.122;2023-05-24T00:33:15;10.29;86.25
67275;DHT22;55463;52.324;5.122;2023-05-24T00:35:40;10.32;85.83
67275;DHT22;55463;52.324;5.122;2023-05-24T00:38:06;10.29;86.45
67275;DHT22;55463;52.324;5.122;2023-05-24T00:40:31;10.32;86.43
67275;DHT22;55463;52.324;5.122;2023-05-24T00:42:56;10.35;86.23
67275;DHT22;55463;52.324;5.122;2023-05-24T00:45:22;10.32;86.75
67275;DHT22;55463;52.324;5.122;2023-05-24T00:47:47;10.27;87.11
67275;DHT22;55463;52.324;5.122;2023-05-24T00:50:12;10.25;87.58
67275;DHT22;55463;52.324;5.122;2023-05-24T00:52:41;10.25;88.05
67275;DHT22;55463;52.324;5.122;2023-05-24T00:55:07;10.27;87.84
67275;DHT22;55463;52.324;5.122;2023-05-24T00:57:34;10.28;87.54
67275;DHT22;55463;52.324;5.122;2023-05-24T01:00:00;10.24;87.48
67275;DHT22;55463;52.324;5.122;2023-05-24T01:02:26;10.21;87.45
67275;DHT22;55463;52.324;5.122;2023-05-24T01:04:52;10.15;87.89
67275;DHT22;55463;52.324;5.122;2023-05-24T01:07:25;10.18;87.44
67275;DHT22;55463;52.324;5.122;2023-05-24T01:15:32;10.08;88.05
67275;DHT22;55463;52.324;5.122;2023-05-24T01:18:10;10.05;88.00
67275;DHT22;55463;52.324;5.122;2023-05-24T01:20:38;10.04;88.53
67275;DHT22;55463;52.324;5.122;2023-05-24T01:28:16;10.01;88.98
67275;DHT22;55463;52.324;5.122;2023-05-24T01:30:43;10.04;88.70
67275;DHT22;55463;52.324;5.122;2023-05-24T01:33:09;10.08;89.43
67275;DHT22;55463;52.324;5.122;2023-05-24T01:35:35;10.05;90.08
67275;DHT22;55463;52.324;5.122;2023-05-24T01:38:05;10.04;89.45
67275;DHT22;55463;52.324;5.122;2023-05-24T01:40:32;10.04;89.58
67275;DHT22;55463;52.324;5.122;2023-05-24T01:43:10;10.05;89.12
67275;DHT22;55463;52.324;5.122;2023-05-24T01:45:54;10.05;89.56
67275;DHT22;55463;52.324;5.122;2023-05-24T01:51:28;9.97;89.54
67275;DHT22;55463;52.324;5.122;2023-05-24T01:53:57;9.95;89.13
67275;DHT22;55463;52.324;5.122;2023-05-24T01:56:25;9.93;89.75
67275;DHT22;55463;52.324;5.122;2023-05-24T01:58:52;9.91;88.87
67275;DHT22;55463;52.324;5.122;2023-05-24T02:01:19;9.89;90.20
67275;DHT22;55463;52.324;5.122;2023-05-24T02:03:44;9.91;90.25
67275;DHT22;55463;52.324;5.122;2023-05-24T02:06:10;9.90;90.01
67275;DHT22;55463;52.324;5.122;2023-05-24T02:08:35;9.89;89.92
67275;DHT22;55463;52.324;5.122;2023-05-24T02:11:01;9.91;89.95
67275;DHT22;55463;52.324;5.122;2023-05-24T02:13:26;9.93;90.21
67275;DHT22;55463;52.324;5.122;2023-05-24T02:15:52;9.93;90.19
67275;DHT22;55463;52.324;5.122;2023-05-24T02:18:17;9.95;90.10
67275;DHT22;55463;52.324;5.122;2023-05-24T02:20:43;9.97;90.66
67275;DHT22;55463;52.324;5.122;2023-05-24T02:23:08;9.97;90.44
67275;DHT22;55463;52.324;5.122;2023-05-24T02:25:34;9.97;90.71
67275;DHT22;55463;52.324;5.122;2023-05-24T02:28:00;10.00;90.27
67275;DHT22;55463;52.324;5.122;2023-05-24T02:30:25;9.97;90.48
67275;DHT22;55463;52.324;5.122;2023-05-24T02:32:51;9.98;90.10
67275;DHT22;55463;52.324;5.122;2023-05-24T02:35:17;9.97;90.45
67275;DHT22;55463;52.324;5.122;2023-05-24T02:37:42;9.95;90.84
67275;DHT22;55463;52.324;5.122;2023-05-24T02:40:08;9.97;91.00
67275;DHT22;55463;52.324;5.122;2023-05-24T02:42:33;9.97;90.50
67275;DHT22;55463;52.324;5.122;2023-05-24T02:44:59;9.98;91.08
67275;DHT22;55463;52.324;5.122;2023-05-24T02:47:24;9.98;90.80
67275;DHT22;55463;52.324;5.122;2023-05-24T02:49:52;9.97;90.74
67275;DHT22;55463;52.324;5.122;2023-05-24T02:52:17;9.93;90.59
67275;DHT22;55463;52.324;5.122;2023-05-24T02:54:46;9.91;90.79
67275;DHT22;55463;52.324;5.122;2023-05-24T02:57:11;9.91;90.42
67275;DHT22;55463;52.324;5.122;2023-05-24T02:59:36;9.90;90.49
67275;DHT22;55463;52.324;5.122;2023-05-24T03:02:02;9.86;90.58
67275;DHT22;55463;52.324;5.122;2023-05-24T03:04:27;9.83;90.83
67275;DHT22;55463;52.324;5.122;2023-05-24T03:06:53;9.83;90.70
67275;DHT22;55463;52.324;5.122;2023-05-24T03:09:18;9.79;91.05
67275;DHT22;55463;52.324;5.122;2023-05-24T03:11:44;9.83;90.71
67275;DHT22;55463;52.324;5.122;2023-05-24T03:14:09;9.80;90.64
67275;DHT22;55463;52.324;5.122;2023-05-24T03:16:35;9.76;90.94
67275;DHT22;55463;52.324;5.122;2023-05-24T03:19:01;9.74;91.07
67275;DHT22;55463;52.324;5.122;2023-05-24T03:21:27;9.74;91.28
67275;DHT22;55463;52.324;5.122;2023-05-24T03:23:52;9.82;91.63
67275;DHT22;55463;52.324;5.122;2023-05-24T03:26:17;9.84;91.04
67275;DHT22;55463;52.324;5.122;2023-05-24T03:28:43;9.87;91.19
67275;DHT22;55463;52.324;5.122;2023-05-24T03:31:09;9.90;90.49
67275;DHT22;55463;52.324;5.122;2023-05-24T03:33:35;9.90;90.55
67275;DHT22;55463;52.324;5.122;2023-05-24T03:36:00;9.86;90.17
67275;DHT22;55463;52.324;5.122;2023-05-24T03:38:28;9.86;91.04
67275;DHT22;55463;52.324;5.122;2023-05-24T03:40:53;9.87;91.45
67275;DHT22;55463;52.324;5.122;2023-05-24T03:43:18;9.90;91.41
67275;DHT22;55463;52.324;5.122;2023-05-24T03:45:44;9.90;91.52
67275;DHT22;55463;52.324;5.122;2023-05-24T03:48:09;9.90;91.35
67275;DHT22;55463;52.324;5.122;2023-05-24T03:50:35;9.89;90.94
67275;DHT22;55463;52.324;5.122;2023-05-24T03:53:00;9.84;91.39
67275;DHT22;55463;52.324;5.122;2023-05-24T03:55:26;9.87;91.61
67275;DHT22;55463;52.324;5.122;2023-05-24T03:57:51;9.86;90.94
67275;DHT22;55463;52.324;5.122;2023-05-24T04:00:17;9.84;91.34
67275;DHT22;55463;52.324;5.122;2023-05-24T04:02:42;9.83;91.98
67275;DHT22;55463;52.324;5.122;2023-05-24T04:05:08;9.87;91.45
67275;DHT22;55463;52.324;5.122;2023-05-24T04:07:35;9.89;91.24
67275;DHT22;55463;52.324;5.122;2023-05-24T04:10:04;9.94;91.71
67275;DHT22;55463;52.324;5.122;2023-05-24T04:12:30;10.01;91.15
67275;DHT22;55463;52.324;5.122;2023-05-24T04:14:56;10.04;91.94
67275;DHT22;55463;52.324;5.122;2023-05-24T04:17:22;10.11;91.41
67275;DHT22;55463;52.324;5.122;2023-05-24T04:19:49;10.17;91.99
67275;DHT22;55463;52.324;5.122;2023-05-24T04:22:15;10.21;91.73
67275;DHT22;55463;52.324;5.122;2023-05-24T04:24:43;10.22;91.31
67275;DHT22;55463;52.324;5.122;2023-05-24T04:27:08;10.25;91.53
67275;DHT22;55463;52.324;5.122;2023-05-24T04:29:34;10.27;91.72
67275;DHT22;55463;52.324;5.122;2023-05-24T04:31:59;10.25;91.32
67275;DHT22;55463;52.324;5.122;2023-05-24T04:34:25;10.27;91.25
67275;DHT22;55463;52.324;5.122;2023-05-24T04:36:50;10.27;91.54
67275;DHT22;55463;52.324;5.122;2023-05-24T04:39:17;10.27;91.21
67275;DHT22;55463;52.324;5.122;2023-05-24T04:41:43;10.28;91.52
67275;DHT22;55463;52.324;5.122;2023-05-24T04:44:09;10.29;91.38
67275;DHT22;55463;52.324;5.122;2023-05-24T04:46:34;10.34;91.09
67275;DHT22;55463;52.324;5.122;2023-05-24T04:49:00;10.39;91.01
67275;DHT22;55463;52.324;5.122;2023-05-24T04:51:26;10.42;90.72
67275;DHT22;55463;52.324;5.122;2023-05-24T04:53:51;10.45;90.02
67275;DHT22;55463;52.324;5.122;2023-05-24T04:56:17;10.50;90.21
67275;DHT22;55463;52.324;5.122;2023-05-24T04:58:43;10.55;90.65
67275;DHT22;55463;52.324;5.122;2023-05-24T05:01:09;10.59;89.70
67275;DHT22;55463;52.324;5.122;2023-05-24T05:03:34;10.64;89.88
67275;DHT22;55463;52.324;5.122;2023-05-24T05:06:00;10.73;89.73
67275;DHT22;55463;52.324;5.122;2023-05-24T05:08:25;10.80;89.77
67275;DHT22;55463;52.324;5.122;2023-05-24T05:10:50;10.90;89.61
67275;DHT22;55463;52.324;5.122;2023-05-24T05:13:16;10.96;88.92
67275;DHT22;55463;52.324;5.122;2023-05-24T05:15:41;11.00;88.20
67275;DHT22;55463;52.324;5.122;2023-05-24T05:18:07;11.08;88.54
67275;DHT22;55463;52.324;5.122;2023-05-24T05:20:32;11.17;88.50
67275;DHT22;55463;52.324;5.122;2023-05-24T05:22:58;11.27;88.27
67275;DHT22;55463;52.324;5.122;2023-05-24T05:25:23;11.34;88.58
67275;DHT22;55463;52.324;5.122;2023-05-24T05:27:48;11.40;88.38
67275;DHT22;55463;52.324;5.122;2023-05-24T05:30:14;11.51;88.52
67275;DHT22;55463;52.324;5.122;2023-05-24T05:32:39;11.52;87.72
67275;DHT22;55463;52.324;5.122;2023-05-24T05:35:05;11.66;88.23
67275;DHT22;55463;52.324;5.122;2023-05-24T05:37:30;11.77;87.51
67275;DHT22;55463;52.324;5.122;2023-05-24T05:39:56;11.84;87.75
67275;DHT22;55463;52.324;5.122;2023-05-24T05:42:21;11.93;87.09
67275;DHT22;55463;52.324;5.122;2023-05-24T05:44:47;11.93;86.79
67275;DHT22;55463;52.324;5.122;2023-05-24T05:47:12;11.95;86.84
67275;DHT22;55463;52.324;5.122;2023-05-24T05:49:38;12.14;87.46
67275;DHT22;55463;52.324;5.122;2023-05-24T05:52:04;12.21;85.53
67275;DHT22;55463;52.324;5.122;2023-05-24T05:54:29;12.29;86.36
67275;DHT22;55463;52.324;5.122;2023-05-24T05:56:55;12.26;85.45
67275;DHT22;55463;52.324;5.122;2023-05-24T05:59:20;12.11;85.54
67275;DHT22;55463;52.324;5.122;2023-05-24T06:01:46;12.18;85.54
67275;DHT22;55463;52.324;5.122;2023-05-24T06:04:13;12.39;85.84
67275;DHT22;55463;52.324;5.122;2023-05-24T06:06:39;12.72;85.98
67275;DHT22;55463;52.324;5.122;2023-05-24T06:09:04;12.90;84.41
67275;DHT22;55463;52.324;5.122;2023-05-24T06:11:30;13.15;84.43
67275;DHT22;55463;52.324;5.122;2023-05-24T06:13:55;13.51;83.13
67275;DHT22;55463;52.324;5.122;2023-05-24T06:16:21;13.66;82.75
67275;DHT22;55463;52.324;5.122;2023-05-24T06:18:46;14.04;82.81
67275;DHT22;55463;52.324;5.122;2023-05-24T06:21:14;14.00;81.29
67275;DHT22;55463;52.324;5.122;2023-05-24T06:23:39;13.71;81.04
67275;DHT22;55463;52.324;5.122;2023-05-24T06:26:05;13.69;79.96
67275;DHT22;55463;52.324;5.122;2023-05-24T06:28:34;13.76;79.84
67275;DHT22;55463;52.324;5.122;2023-05-24T06:30:59;14.08;80.16
67275;DHT22;55463;52.324;5.122;2023-05-24T06:33:24;14.28;80.35
67275;DHT22;55463;52.324;5.122;2023-05-24T06:35:51;14.58;79.27
67275;DHT22;55463;52.324;5.122;2023-05-24T06:38:17;14.87;78.17
67275;DHT22;55463;52.324;5.122;2023-05-24T06:40:42;15.28;79.07
67275;DHT22;55463;52.324;5.122;2023-05-24T06:43:08;15.62;77.60
67275;DHT22;55463;52.324;5.122;2023-05-24T06:45:42;15.67;74.41
67275;DHT22;55463;52.324;5.122;2023-05-24T06:48:13;15.43;74.26
67275;DHT22;55463;52.324;5.122;2023-05-24T06:50:38;15.56;76.57
67275;DHT22;55463;52.324;5.122;2023-05-24T06:53:03;15.74;74.66
67275;DHT22;55463;52.324;5.122;2023-05-24T06:55:29;15.80;74.77
67275;DHT22;55463;52.324;5.122;2023-05-24T06:57:55;15.56;74.15
67275;DHT22;55463;52.324;5.122;2023-05-24T07:00:20;15.66;74.21
67275;DHT22;55463;52.324;5.122;2023-05-24T07:02:46;15.69;73.96
67275;DHT22;55463;52.324;5.122;2023-05-24T07:05:11;15.89;74.87
67275;DHT22;55463;52.324;5.122;2023-05-24T07:07:41;15.80;73.92
67275;DHT22;55463;52.324;5.122;2023-05-24T07:10:08;15.83;73.17
67275;DHT22;55463;52.324;5.122;2023-05-24T07:12:35;16.42;74.18
67275;DHT22;55463;52.324;5.122;2023-05-24T07:15:01;16.46;73.21
67275;DHT22;55463;52.324;5.122;2023-05-24T07:17:26;16.49;70.98
67275;DHT22;55463;52.324;5.122;2023-05-24T07:19:52;16.60;71.96
67275;DHT22;55463;52.324;5.122;2023-05-24T07:22:17;17.17;73.04
67275;DHT22;55463;52.324;5.122;2023-05-24T07:24:42;17.24;70.34
67275;DHT22;55463;52.324;5.122;2023-05-24T07:27:08;17.43;69.51
67275;DHT22;55463;52.324;5.122;2023-05-24T07:29:34;17.21;68.95
67275;DHT22;55463;52.324;5.122;2023-05-24T07:31:59;17.39;69.78
67275;DHT22;55463;52.324;5.122;2023-05-24T07:34:25;18.00;68.99
67275;DHT22;55463;52.324;5.122;2023-05-24T07:36:56;18.24;68.11
67275;DHT22;55463;52.324;5.122;2023-05-24T07:39:25;18.90;68.06
67275;DHT22;55463;52.324;5.122;2023-05-24T07:41:52;18.79;63.15
67275;DHT22;55463;52.324;5.122;2023-05-24T07:44:19;19.62;66.06
67275;DHT22;55463;52.324;5.122;2023-05-24T07:46:45;19.56;64.60
67275;DHT22;55463;52.324;5.122;2023-05-24T07:49:10;19.29;62.39
67275;DHT22;55463;52.324;5.122;2023-05-24T07:51:36;19.58;63.11
67275;DHT22;55463;52.324;5.122;2023-05-24T07:54:04;20.34;63.17
67275;DHT22;55463;52.324;5.122;2023-05-24T07:56:30;20.55;61.05
67275;DHT22;55463;52.324;5.122;2023-05-24T07:58:56;20.70;60.45
67275;DHT22;55463;52.324;5.122;2023-05-24T08:01:28;20.26;59.67
67275;DHT22;55463;52.324;5.122;2023-05-24T08:03:53;20.20;60.65
67275;DHT22;55463;52.324;5.122;2023-05-24T08:06:19;19.73;60.39
67275;DHT22;55463;52.324;5.122;2023-05-24T08:08:44;19.26;61.06
67275;DHT22;55463;52.324;5.122;2023-05-24T08:11:10;19.51;62.05
67275;DHT22;55463;52.324;5.122;2023-05-24T08:13:36;19.67;62.16
67275;DHT22;55463;52.324;5.122;2023-05-24T08:16:01;19.87;60.27
67275;DHT22;55463;52.324;5.122;2023-05-24T08:18:27;20.45;60.79
67275;DHT22;55463;52.324;5.122;2023-05-24T08:20:52;20.32;58.36
67275;DHT22;55463;52.324;5.122;2023-05-24T08:23:17;19.94;59.88
67275;DHT22;55463;52.324;5.122;2023-05-24T08:25:43;20.52;61.50
67275;DHT22;55463;52.324;5.122;2023-05-24T08:28:08;21.62;58.99
67275;DHT22;55463;52.324;5.122;2023-05-24T08:30:35;21.17;57.39
67275;DHT22;55463;52.324;5.122;2023-05-24T08:33:01;21.08;57.56
67275;DHT22;55463;52.324;5.122;2023-05-24T08:35:26;21.41;56.77
67275;DHT22;55463;52.324;5.122;2023-05-24T08:37:52;21.31;55.20
67275;DHT22;55463;52.324;5.122;2023-05-24T08:40:17;21.98;57.40
67275;DHT22;55463;52.324;5.122;2023-05-24T08:42:43;21.92;54.55
67275;DHT22;55463;52.324;5.122;2023-05-24T08:45:13;22.27;55.64
67275;DHT22;55463;52.324;5.122;2023-05-24T08:47:39;23.17;56.04
67275;DHT22;55463;52.324;5.122;2023-05-24T08:50:05;23.22;52.86
67275;DHT22;55463;52.324;5.122;2023-05-24T08:52:32;23.11;54.46
67275;DHT22;55463;52.324;5.122;2023-05-24T08:54:58;22.70;52.80
67275;DHT22;55463;52.324;5.122;2023-05-24T08:57:27;22.35;53.62
67275;DHT22;55463;52.324;5.122;2023-05-24T08:59:55;22.60;53.03
67275;DHT22;55463;52.324;5.122;2023-05-24T09:02:21;23.22;54.04
67275;DHT22;55463;52.324;5.122;2023-05-24T09:04:48;23.49;52.90
67275;DHT22;55463;52.324;5.122;2023-05-24T09:07:17;23.08;53.14
67275;DHT22;55463;52.324;5.122;2023-05-24T09:09:55;22.72;51.66
67275;DHT22;55463;52.324;5.122;2023-05-24T09:12:21;23.69;51.87
67275;DHT22;55463;52.324;5.122;2023-05-24T09:14:47;22.75;51.13
67275;DHT22;55463;52.324;5.122;2023-05-24T09:17:13;23.01;51.08
67275;DHT22;55463;52.324;5.122;2023-05-24T09:19:45;23.52;51.36
67275;DHT22;55463;52.324;5.122;2023-05-24T09:22:14;22.00;53.27
67275;DHT22;55463;52.324;5.122;2023-05-24T09:24:46;22.63;52.61
67275;DHT22;55463;52.324;5.122;2023-05-24T09:27:16;22.63;52.58
67275;DHT22;55463;52.324;5.122;2023-05-24T09:29:43;22.70;51.26
67275;DHT22;55463;52.324;5.122;2023-05-24T09:32:11;22.08;52.41
67275;DHT22;55463;52.324;5.122;2023-05-24T09:34:39;22.08;53.21
67275;DHT22;55463;52.324;5.122;2023-05-24T09:37:06;22.41;52.22
67275;DHT22;55463;52.324;5.122;2023-05-24T09:39:36;22.80;52.00
67275;DHT22;55463;52.324;5.122;2023-05-24T09:42:03;22.84;52.74
67275;DHT22;55463;52.324;5.122;2023-05-24T09:44:28;23.29;50.86
67275;DHT22;55463;52.324;5.122;2023-05-24T09:47:03;23.79;50.90
67275;DHT22;55463;52.324;5.122;2023-05-24T09:49:30;24.48;47.99
67275;DHT22;55463;52.324;5.122;2023-05-24T09:51:55;23.69;49.12
67275;DHT22;55463;52.324;5.122;2023-05-24T09:54:21;22.99;50.93
67275;DHT22;55463;52.324;5.122;2023-05-24T09:56:46;23.14;53.00
67275;DHT22;55463;52.324;5.122;2023-05-24T09:59:13;23.10;52.08
67275;DHT22;55463;52.324;5.122;2023-05-24T10:01:39;23.04;51.88
67275;DHT22;55463;52.324;5.122;2023-05-24T10:04:04;22.82;50.67
67275;DHT22;55463;52.324;5.122;2023-05-24T10:06:34;23.73;52.27
67275;DHT22;55463;52.324;5.122;2023-05-24T10:09:03;23.22;50.09
67275;DHT22;55463;52.324;5.122;2023-05-24T10:11:34;22.59;52.06
67275;DHT22;55463;52.324;5.122;2023-05-24T10:14:03;23.12;52.17
67275;DHT22;55463;52.324;5.122;2023-05-24T10:16:28;23.46;51.59
67275;DHT22;55463;52.324;5.122;2023-05-24T10:18:54;23.73;51.84
67275;DHT22;55463;52.324;5.122;2023-05-24T10:21:22;23.48;50.96
67275;DHT22;55463;52.324;5.122;2023-05-24T10:23:50;24.37;50.31
67275;DHT22;55463;52.324;5.122;2023-05-24T10:26:18;24.82;50.70
67275;DHT22;55463;52.324;5.122;2023-05-24T10:28:47;23.80;48.58
67275;DHT22;55463;52.324;5.122;2023-05-24T10:31:21;24.25;48.79
67275;DHT22;55463;52.324;5.122;2023-05-24T10:33:48;23.84;48.86
67275;DHT22;55463;52.324;5.122;2023-05-24T10:36:16;23.69;50.96
67275;DHT22;55463;52.324;5.122;2023-05-24T10:38:45;24.34;50.80
67275;DHT22;55463;52.324;5.122;2023-05-24T10:41:11;24.01;49.60
67275;DHT22;55463;52.324;5.122;2023-05-24T10:43:37;23.55;48.71
67275;DHT22;55463;52.324;5.122;2023-05-24T10:46:04;22.97;48.82
67275;DHT22;55463;52.324;5.122;2023-05-24T10:48:58;23.67;50.91
67275;DHT22;55463;52.324;5.122;2023-05-24T10:51:37;24.58;49.99
67275;DHT22;55463;52.324;5.122;2023-05-24T10:54:14;23.65;49.85
67275;DHT22;55463;52.324;5.122;2023-05-24T10:56:48;24.11;51.34
67275;DHT22;55463;52.324;5.122;2023-05-24T10:59:27;23.62;50.05
67275;DHT22;55463;52.324;5.122;2023-05-24T11:01:56;24.06;50.12
67275;DHT22;55463;52.324;5.122;2023-05-24T11:04:24;24.28;49.96
67275;DHT22;55463;52.324;5.122;2023-05-24T11:07:00;24.32;47.97
67275;DHT22;55463;52.324;5.122;2023-05-24T11:09:26;23.59;49.26
67275;DHT22;55463;52.324;5.122;2023-05-24T11:12:06;24.37;49.43
67275;DHT22;55463;52.324;5.122;2023-05-24T11:14:36;24.48;49.37
67275;DHT22;55463;52.324;5.122;2023-05-24T11:17:04;24.32;50.14
67275;DHT22;55463;52.324;5.122;2023-05-24T11:19:32;24.51;48.18
67275;DHT22;55463;52.324;5.122;2023-05-24T11:21:58;24.03;49.29
67275;DHT22;55463;52.324;5.122;2023-05-24T11:24:25;23.44;51.13
67275;DHT22;55463;52.324;5.122;2023-05-24T11:26:51;22.70;51.09
67275;DHT22;55463;52.324;5.122;2023-05-24T11:29:19;21.97;52.38
67275;DHT22;55463;52.324;5.122;2023-05-24T11:31:53;22.49;52.43
67275;DHT22;55463;52.324;5.122;2023-05-24T11:34:20;22.92;51.59
67275;DHT22;55463;52.324;5.122;2023-05-24T11:36:50;23.89;52.42
67275;DHT22;55463;52.324;5.122;2023-05-24T11:39:19;24.52;50.79
67275;DHT22;55463;52.324;5.122;2023-05-24T11:41:46;24.07;49.07
67275;DHT22;55463;52.324;5.122;2023-05-24T11:44:16;24.69;48.43
67275;DHT22;55463;52.324;5.122;2023-05-24T11:46:43;23.86;49.27
67275;DHT22;55463;52.324;5.122;2023-05-24T11:49:15;24.01;51.31
67275;DHT22;55463;52.324;5.122;2023-05-24T11:51:41;24.07;49.96
67275;DHT22;55463;52.324;5.122;2023-05-24T11:54:10;24.25;49.51
67275;DHT22;55463;52.324;5.122;2023-05-24T11:56:36;24.69;49.71
67275;DHT22;55463;52.324;5.122;2023-05-24T11:59:08;24.11;48.93
67275;DHT22;55463;52.324;5.122;2023-05-24T12:01:35;23.89;50.15
67275;DHT22;55463;52.324;5.122;2023-05-24T12:04:04;23.63;49.91
67275;DHT22;55463;52.324;5.122;2023-05-24T12:06:35;23.46;51.06
67275;DHT22;55463;52.324;5.122;2023-05-24T12:09:00;22.89;51.51
67275;DHT22;55463;52.324;5.122;2023-05-24T12:11:30;22.69;51.60
67275;DHT22;55463;52.324;5.122;2023-05-24T12:13:57;22.80;51.68
67275;DHT22;55463;52.324;5.122;2023-05-24T12:16:22;23.29;52.44
67275;DHT22;55463;52.324;5.122;2023-05-24T12:18:51;23.49;52.51
67275;DHT22;55463;52.324;5.122;2023-05-24T12:21:19;23.44;50.61
67275;DHT22;55463;52.324;5.122;2023-05-24T12:23:46;23.04;51.45
67275;DHT22;55463;52.324;5.122;2023-05-24T12:26:12;22.70;51.16
67275;DHT22;55463;52.324;5.122;2023-05-24T12:28:38;23.08;51.50
67275;DHT22;55463;52.324;5.122;2023-05-24T12:31:04;23.34;52.53
67275;DHT22;55463;52.324;5.122;2023-05-24T12:33:32;22.84;50.64
67275;DHT22;55463;52.324;5.122;2023-05-24T12:36:00;22.51;52.12
67275;DHT22;55463;52.324;5.122;2023-05-24T12:38:31;22.07;53.45
67275;DHT22;55463;52.324;5.122;2023-05-24T12:40:59;22.03;53.89
67275;DHT22;55463;52.324;5.122;2023-05-24T12:43:24;21.90;54.10
67275;DHT22;55463;52.324;5.122;2023-05-24T12:45:50;21.15;54.03
67275;DHT22;55463;52.324;5.122;2023-05-24T12:48:16;21.00;54.09
67275;DHT22;55463;52.324;5.122;2023-05-24T12:50:41;20.96;53.88
67275;DHT22;55463;52.324;5.122;2023-05-24T12:53:09;21.07;54.36
67275;DHT22;55463;52.324;5.122;2023-05-24T12:55:35;21.01;54.59
67275;DHT22;55463;52.324;5.122;2023-05-24T12:58:01;20.70;55.23
67275;DHT22;55463;52.324;5.122;2023-05-24T13:00:30;20.18;54.81
67275;DHT22;55463;52.324;5.122;2023-05-24T13:02:59;20.39;54.90
67275;DHT22;55463;52.324;5.122;2023-05-24T13:05:26;20.36;56.19
67275;DHT22;55463;52.324;5.122;2023-05-24T13:07:53;20.32;54.78
67275;DHT22;55463;52.324;5.122;2023-05-24T13:10:21;20.52;53.27
67275;DHT22;55463;52.324;5.122;2023-05-24T13:12:46;20.86;54.44
67275;DHT22;55463;52.324;5.122;2023-05-24T13:15:15;20.84;53.48
67275;DHT22;55463;52.324;5.122;2023-05-24T13:17:41;20.91;53.54
67275;DHT22;55463;52.324;5.122;2023-05-24T13:20:07;20.72;53.02
67275;DHT22;55463;52.324;5.122;2023-05-24T13:22:36;20.75;54.20
67275;DHT22;55463;52.324;5.122;2023-05-24T13:25:03;20.53;55.05
67275;DHT22;55463;52.324;5.122;2023-05-24T13:27:29;20.36;56.15
67275;DHT22;55463;52.324;5.122;2023-05-24T13:29:57;20.41;57.08
67275;DHT22;55463;52.324;5.122;2023-05-24T13:32:23;20.43;56.57
67275;DHT22;55463;52.324;5.122;2023-05-24T13:34:51;20.21;56.58
67275;DHT22;55463;52.324;5.122;2023-05-24T13:37:17;19.74;56.68
67275;DHT22;55463;52.324;5.122;2023-05-24T13:39:43;19.70;58.37
67275;DHT22;55463;52.324;5.122;2023-05-24T13:42:09;19.90;57.15
67275;DHT22;55463;52.324;5.122;2023-05-24T13:44:35;19.52;57.02
67275;DHT22;55463;52.324;5.122;2023-05-24T13:47:01;19.76;57.64
67275;DHT22;55463;52.324;5.122;2023-05-24T13:49:27;19.74;55.91
67275;DHT22;55463;52.324;5.122;2023-05-24T13:51:53;19.89;57.62
67275;DHT22;55463;52.324;5.122;2023-05-24T13:54:19;19.94;57.12
67275;DHT22;55463;52.324;5.122;2023-05-24T13:56:48;19.98;58.36
67275;DHT22;55463;52.324;5.122;2023-05-24T13:59:15;19.91;58.48
67275;DHT22;55463;52.324;5.122;2023-05-24T14:01:41;20.15;57.60
67275;DHT22;55463;52.324;5.122;2023-05-24T14:04:07;20.01;57.58
67275;DHT22;55463;52.324;5.122;2023-05-24T14:06:33;20.25;57.28
67275;DHT22;55463;52.324;5.122;2023-05-24T14:08:59;20.49;55.90
67275;DHT22;55463;52.324;5.122;2023-05-24T14:11:25;20.65;55.15
67275;DHT22;55463;52.324;5.122;2023-05-24T14:13:51;20.80;55.46
67275;DHT22;55463;52.324;5.122;2023-05-24T14:16:17;20.45;55.94
67275;DHT22;55463;52.324;5.122;2023-05-24T14:18:42;20.65;56.85
67275;DHT22;55463;52.324;5.122;2023-05-24T14:21:08;20.14;56.65
67275;DHT22;55463;52.324;5.122;2023-05-24T14:23:37;20.35;55.94
67275;DHT22;55463;52.324;5.122;2023-05-24T14:26:03;20.55;57.06
67275;DHT22;55463;52.324;5.122;2023-05-24T14:28:28;20.60;56.35
67275;DHT22;55463;52.324;5.122;2023-05-24T14:30:54;20.97;56.60
67275;DHT22;55463;52.324;5.122;2023-05-24T14:33:19;20.93;54.46
67275;DHT22;55463;52.324;5.122;2023-05-24T14:35:48;21.21;56.31
67275;DHT22;55463;52.324;5.122;2023-05-24T14:38:14;21.32;56.37
67275;DHT22;55463;52.324;5.122;2023-05-24T14:40:39;21.37;54.33
67275;DHT22;55463;52.324;5.122;2023-05-24T14:43:06;20.90;54.65
67275;DHT22;55463;52.324;5.122;2023-05-24T14:45:34;21.21;56.90
67275;DHT22;55463;52.324;5.122;2023-05-24T14:48:02;20.86;55.21
67275;DHT22;55463;52.324;5.122;2023-05-24T14:50:28;20.72;55.05
67275;DHT22;55463;52.324;5.122;2023-05-24T14:52:53;20.75;56.59
67275;DHT22;55463;52.324;5.122;2023-05-24T14:55:22;20.96;56.31
67275;DHT22;55463;52.324;5.122;2023-05-24T14:57:50;20.66;56.05
67275;DHT22;55463;52.324;5.122;2023-05-24T15:00:22;20.97;56.48
67275;DHT22;55463;52.324;5.122;2023-05-24T15:02:47;21.20;57.49
67275;DHT22;55463;52.324;5.122;2023-05-24T15:05:13;21.11;56.15
67275;DHT22;55463;52.324;5.122;2023-05-24T15:07:40;21.21;56.78
67275;DHT22;55463;52.324;5.122;2023-05-24T15:10:06;20.81;55.72
67275;DHT22;55463;52.324;5.122;2023-05-24T15:12:32;20.48;56.54
67275;DHT22;55463;52.324;5.122;2023-05-24T15:14:59;20.18;56.70
67275;DHT22;55463;52.324;5.122;2023-05-24T15:17:24;20.38;58.11
67275;DHT22;55463;52.324;5.122;2023-05-24T15:19:50;19.94;57.36
67275;DHT22;55463;52.324;5.122;2023-05-24T15:22:18;19.62;56.07
67275;DHT22;55463;52.324;5.122;2023-05-24T15:24:44;19.65;57.35
67275;DHT22;55463;52.324;5.122;2023-05-24T15:27:12;19.42;59.02
67275;DHT22;55463;52.324;5.122;2023-05-24T15:29:37;19.31;58.99
67275;DHT22;55463;52.324;5.122;2023-05-24T15:32:03;19.21;59.85
67275;DHT22;55463;52.324;5.122;2023-05-24T15:34:29;18.91;59.62
67275;DHT22;55463;52.324;5.122;2023-05-24T15:36:57;18.81;60.50
67275;DHT22;55463;52.324;5.122;2023-05-24T15:39:24;18.89;62.44
67275;DHT22;55463;52.324;5.122;2023-05-24T15:41:50;18.86;61.32
67275;DHT22;55463;52.324;5.122;2023-05-24T15:44:16;19.11;61.19